KBLM/BLM METAR and TAF weather

Enter ICAO airport designator
Station Type Date Time Source
KBLM METAR 2018/04/19 12:56 UTC NOAA

KBLM 191256Z AUTO 31012KT 10SM BKN095 10/04 A2967 RMK AO2 SLP052 T01000039


Station Type Date Time Source
KBLM Decoded METAR 2018/04/19 12:56 UTC NOAA

Belmar-Farmingdale, NJ, United States (KBLM) 40-11N 074-08W
Apr 19, 2018 - 08:56 AM EDT / 2018.04.19 1256 UTC
Wind: from the NW (310 degrees) at 14 MPH (12 KT):0
Visibility: 10 mile(s):0
Sky conditions: mostly cloudy
Temperature: 50.0 F (10.0 C)
Dew Point: 39.0 F (3.9 C)
Relative Humidity: 65%
Pressure (altimeter): 29.67 in. Hg (1004 hPa)
ob: KBLM 191256Z AUTO 31012KT 10SM BKN095 10/04 A2967 RMK AO2 SLP052 T01000039
cycle: 13

Station Type Date Time Source
KBLM TAF UTC NOAA

Error!


Example: see airport list